sensor_id;sensor_type;location;lat;lon;timestamp;pressure;altitude;pressure_sealevel;temperature;humidity
32733;BME280;11867;51.198;11.966;2022-08-20T00:03:00;100262.81;;;19.95;100.00
32733;BME280;11867;51.198;11.966;2022-08-20T00:08:05;100269.63;;;19.98;100.00
32733;BME280;11867;51.198;11.966;2022-08-20T00:13:10;100248.59;;;20.87;95.86
32733;BME280;11867;51.198;11.966;2022-08-20T00:18:19;100244.44;;;20.40;98.19
32733;BME280;11867;51.198;11.966;2022-08-20T00:23:23;100251.97;;;19.78;100.00
32733;BME280;11867;51.198;11.966;2022-08-20T00:28:26;100252.16;;;19.48;100.00
32733;BME280;11867;51.198;11.966;2022-08-20T00:33:32;100229.91;;;20.31;100.00
32733;BME280;11867;51.198;11.966;2022-08-20T00:38:37;100237.69;;;19.76;100.00
32733;BME280;11867;51.198;11.966;2022-08-20T00:43:42;100239.03;;;19.58;100.00
32733;BME280;11867;51.198;11.966;2022-08-20T00:48:48;100233.28;;;19.63;100.00
32733;BME280;11867;51.198;11.966;2022-08-20T00:53:53;100236.28;;;19.82;100.00
32733;BME280;11867;51.198;11.966;2022-08-20T00:58:56;100243.28;;;19.55;100.00
32733;BME280;11867;51.198;11.966;2022-08-20T01:03:58;100232.63;;;19.32;100.00
32733;BME280;11867;51.198;11.966;2022-08-20T01:09:03;100242.19;;;19.23;100.00
32733;BME280;11867;51.198;11.966;2022-08-20T01:14:10;100244.28;;;19.38;100.00
32733;BME280;11867;51.198;11.966;2022-08-20T01:19:39;100243.09;;;20.22;100.00
32733;BME280;11867;51.198;11.966;2022-08-20T01:24:44;100237.25;;;20.51;100.00
32733;BME280;11867;51.198;11.966;2022-08-20T01:29:50;100238.06;;;20.64;99.99
32733;BME280;11867;51.198;11.966;2022-08-20T01:34:52;100244.47;;;20.81;99.21
32733;BME280;11867;51.198;11.966;2022-08-20T01:39:56;100247.13;;;21.05;98.35
32733;BME280;11867;51.198;11.966;2022-08-20T01:45:00;100248.22;;;20.60;99.58
32733;BME280;11867;51.198;11.966;2022-08-20T01:50:07;100238.09;;;20.40;100.00
32733;BME280;11867;51.198;11.966;2022-08-20T01:55:13;100249.81;;;20.73;98.53
32733;BME280;11867;51.198;11.966;2022-08-20T02:00:18;100246.22;;;20.20;100.00
32733;BME280;11867;51.198;11.966;2022-08-20T02:05:22;100245.97;;;19.88;100.00
32733;BME280;11867;51.198;11.966;2022-08-20T02:10:31;100260.34;;;19.57;100.00
32733;BME280;11867;51.198;11.966;2022-08-20T02:15:34;100261.53;;;19.23;100.00
32733;BME280;11867;51.198;11.966;2022-08-20T02:20:43;100264.31;;;19.23;100.00
32733;BME280;11867;51.198;11.966;2022-08-20T02:25:46;100263.16;;;19.24;100.00
32733;BME280;11867;51.198;11.966;2022-08-20T02:30:52;100256.72;;;20.02;100.00
32733;BME280;11867;51.198;11.966;2022-08-20T02:35:56;100260.22;;;19.41;100.00
32733;BME280;11867;51.198;11.966;2022-08-20T02:40:59;100266.22;;;19.43;100.00
32733;BME280;11867;51.198;11.966;2022-08-20T02:46:04;100267.66;;;19.99;100.00
32733;BME280;11867;51.198;11.966;2022-08-20T02:51:07;100268.81;;;19.98;100.00
32733;BME280;11867;51.198;11.966;2022-08-20T02:56:10;100265.59;;;19.95;100.00
32733;BME280;11867;51.198;11.966;2022-08-20T03:01:16;100261.19;;;20.31;100.00
32733;BME280;11867;51.198;11.966;2022-08-20T03:06:19;100257.94;;;19.55;100.00
32733;BME280;11867;51.198;11.966;2022-08-20T03:11:22;100268.56;;;19.32;100.00
32733;BME280;11867;51.198;11.966;2022-08-20T03:16:26;100264.31;;;20.30;100.00
32733;BME280;11867;51.198;11.966;2022-08-20T03:21:28;100262.75;;;20.69;98.99
32733;BME280;11867;51.198;11.966;2022-08-20T03:26:31;100259.81;;;20.25;100.00
32733;BME280;11867;51.198;11.966;2022-08-20T03:31:35;100265.75;;;19.41;100.00
32733;BME280;11867;51.198;11.966;2022-08-20T03:36:37;100261.44;;;20.26;100.00
32733;BME280;11867;51.198;11.966;2022-08-20T03:41:40;100258.88;;;20.33;100.00
32733;BME280;11867;51.198;11.966;2022-08-20T03:46:44;100268.00;;;20.87;98.59
32733;BME280;11867;51.198;11.966;2022-08-20T03:51:46;100265.91;;;20.96;97.84
32733;BME280;11867;51.198;11.966;2022-08-20T03:56:59;100272.22;;;19.58;100.00
32733;BME280;11867;51.198;11.966;2022-08-20T04:02:05;100267.66;;;20.11;100.00
32733;BME280;11867;51.198;11.966;2022-08-20T04:07:08;100278.16;;;20.05;100.00
32733;BME280;11867;51.198;11.966;2022-08-20T04:12:12;100270.41;;;20.23;100.00
32733;BME280;11867;51.198;11.966;2022-08-20T04:17:18;100269.88;;;19.93;100.00
32733;BME280;11867;51.198;11.966;2022-08-20T04:22:22;100269.25;;;20.61;100.00
32733;BME280;11867;51.198;11.966;2022-08-20T04:27:25;100267.16;;;20.58;99.68
32733;BME280;11867;51.198;11.966;2022-08-20T04:32:29;100268.50;;;19.99;100.00
32733;BME280;11867;51.198;11.966;2022-08-20T04:37:32;100276.41;;;20.38;100.00
32733;BME280;11867;51.198;11.966;2022-08-20T04:42:35;100281.03;;;19.96;100.00
32733;BME280;11867;51.198;11.966;2022-08-20T04:47:40;100283.00;;;19.96;100.00
32733;BME280;11867;51.198;11.966;2022-08-20T04:52:43;100291.41;;;19.87;100.00
32733;BME280;11867;51.198;11.966;2022-08-20T04:57:46;100285.88;;;19.87;100.00
32733;BME280;11867;51.198;11.966;2022-08-20T05:02:51;100297.06;;;19.91;100.00
32733;BME280;11867;51.198;11.966;2022-08-20T05:07:53;100283.47;;;20.10;100.00
32733;BME280;11867;51.198;11.966;2022-08-20T05:12:57;100300.72;;;20.44;100.00
32733;BME280;11867;51.198;11.966;2022-08-20T05:18:01;100304.78;;;20.47;100.00
32733;BME280;11867;51.198;11.966;2022-08-20T05:23:07;100303.63;;;20.60;100.00
32733;BME280;11867;51.198;11.966;2022-08-20T05:28:14;100306.56;;;20.92;99.49
32733;BME280;11867;51.198;11.966;2022-08-20T05:33:21;100314.34;;;20.74;100.00
32733;BME280;11867;51.198;11.966;2022-08-20T05:38:27;100315.59;;;21.17;97.84
32733;BME280;11867;51.198;11.966;2022-08-20T05:43:31;100316.06;;;20.66;100.00
32733;BME280;11867;51.198;11.966;2022-08-20T05:48:35;100322.44;;;21.07;99.40
32733;BME280;11867;51.198;11.966;2022-08-20T05:53:38;100315.81;;;21.40;98.33
32733;BME280;11867;51.198;11.966;2022-08-20T05:58:41;100312.47;;;21.06;99.75
32733;BME280;11867;51.198;11.966;2022-08-20T06:03:45;100325.63;;;20.56;100.00
32733;BME280;11867;51.198;11.966;2022-08-20T06:09:06;100323.44;;;20.74;100.00
32733;BME280;11867;51.198;11.966;2022-08-20T06:14:09;100317.66;;;20.92;99.59
32733;BME280;11867;51.198;11.966;2022-08-20T06:19:13;100318.34;;;21.17;99.53
32733;BME280;11867;51.198;11.966;2022-08-20T06:24:25;100324.03;;;21.36;96.84
32733;BME280;11867;51.198;11.966;2022-08-20T06:29:28;100327.94;;;21.48;96.84
32733;BME280;11867;51.198;11.966;2022-08-20T06:34:34;100327.56;;;21.49;96.89
32733;BME280;11867;51.198;11.966;2022-08-20T06:39:37;100331.66;;;21.40;97.35
32733;BME280;11867;51.198;11.966;2022-08-20T06:44:39;100331.00;;;21.59;97.11
32733;BME280;11867;51.198;11.966;2022-08-20T06:49:43;100330.69;;;21.20;99.20
32733;BME280;11867;51.198;11.966;2022-08-20T06:54:47;100346.38;;;21.28;99.29
32733;BME280;11867;51.198;11.966;2022-08-20T06:59:53;100349.06;;;20.84;100.00
32733;BME280;11867;51.198;11.966;2022-08-20T07:04:57;100350.75;;;21.29;99.31
32733;BME280;11867;51.198;11.966;2022-08-20T07:09:59;100353.25;;;21.46;97.96
32733;BME280;11867;51.198;11.966;2022-08-20T07:15:02;100363.06;;;21.72;95.73
32733;BME280;11867;51.198;11.966;2022-08-20T07:20:10;100367.63;;;21.80;95.35
32733;BME280;11867;51.198;11.966;2022-08-20T07:25:16;100372.56;;;21.71;97.45
32733;BME280;11867;51.198;11.966;2022-08-20T07:30:23;100373.97;;;20.96;100.00
32733;BME280;11867;51.198;11.966;2022-08-20T07:36:01;100384.41;;;22.00;96.48
32733;BME280;11867;51.198;11.966;2022-08-20T07:41:26;100380.19;;;22.22;93.84
32733;BME280;11867;51.198;11.966;2022-08-20T07:47:17;100361.03;;;22.32;92.84
32733;BME280;11867;51.198;11.966;2022-08-20T07:52:46;100376.75;;;21.65;99.72
32733;BME280;11867;51.198;11.966;2022-08-20T07:58:08;100351.53;;;22.17;93.93
32733;BME280;11867;51.198;11.966;2022-08-20T08:03:30;100383.03;;;21.77;99.13
32733;BME280;11867;51.198;11.966;2022-08-20T08:08:56;100354.84;;;21.75;98.93
32733;BME280;11867;51.198;11.966;2022-08-20T08:14:12;100354.75;;;22.20;95.29
32733;BME280;11867;51.198;11.966;2022-08-20T08:19:16;100370.25;;;22.52;94.07
32733;BME280;11867;51.198;11.966;2022-08-20T08:24:21;100387.53;;;22.97;91.45
32733;BME280;11867;51.198;11.966;2022-08-20T08:29:28;100378.31;;;22.93;91.20
32733;BME280;11867;51.198;11.966;2022-08-20T08:34:33;100391.53;;;23.35;89.16
32733;BME280;11867;51.198;11.966;2022-08-20T08:39:37;100384.53;;;23.22;87.82
32733;BME280;11867;51.198;11.966;2022-08-20T08:44:40;100399.56;;;22.66;88.48
32733;BME280;11867;51.198;11.966;2022-08-20T08:49:45;100399.38;;;22.43;90.80
32733;BME280;11867;51.198;11.966;2022-08-20T08:54:52;100396.38;;;22.67;90.79
32733;BME280;11867;51.198;11.966;2022-08-20T09:00:00;100408.34;;;22.20;92.86
32733;BME280;11867;51.198;11.966;2022-08-20T09:05:12;100397.78;;;22.58;91.84
32733;BME280;11867;51.198;11.966;2022-08-20T09:10:17;100403.25;;;22.89;90.43
32733;BME280;11867;51.198;11.966;2022-08-20T09:15:23;100410.94;;;23.12;89.14
32733;BME280;11867;51.198;11.966;2022-08-20T09:20:26;100405.88;;;23.37;88.11
32733;BME280;11867;51.198;11.966;2022-08-20T09:25:30;100405.78;;;23.72;86.10
32733;BME280;11867;51.198;11.966;2022-08-20T09:30:33;100406.41;;;23.43;86.97
32733;BME280;11867;51.198;11.966;2022-08-20T09:35:36;100412.94;;;24.12;86.05
32733;BME280;11867;51.198;11.966;2022-08-20T09:40:41;100403.88;;;24.42;83.40
32733;BME280;11867;51.198;11.966;2022-08-20T09:45:44;100405.72;;;24.34;84.14
32733;BME280;11867;51.198;11.966;2022-08-20T09:50:48;100406.53;;;24.58;80.54
32733;BME280;11867;51.198;11.966;2022-08-20T09:55:53;100404.72;;;24.46;81.34
32733;BME280;11867;51.198;11.966;2022-08-20T10:00:57;100397.63;;;24.26;82.68
32733;BME280;11867;51.198;11.966;2022-08-20T10:06:00;100402.06;;;24.30;84.80
32733;BME280;11867;51.198;11.966;2022-08-20T10:11:04;100398.41;;;24.72;80.93
32733;BME280;11867;51.198;11.966;2022-08-20T10:16:07;100399.53;;;25.25;79.26
32733;BME280;11867;51.198;11.966;2022-08-20T10:21:10;100399.31;;;25.10;81.30
32733;BME280;11867;51.198;11.966;2022-08-20T10:26:15;100406.09;;;24.33;83.46
32733;BME280;11867;51.198;11.966;2022-08-20T10:31:17;100408.00;;;24.75;83.84
32733;BME280;11867;51.198;11.966;2022-08-20T10:36:20;100416.28;;;24.71;83.19
32733;BME280;11867;51.198;11.966;2022-08-20T10:41:23;100416.53;;;25.84;74.31
32733;BME280;11867;51.198;11.966;2022-08-20T10:46:26;100411.94;;;26.43;72.10
32733;BME280;11867;51.198;11.966;2022-08-20T10:51:29;100408.91;;;26.59;71.17
32733;BME280;11867;51.198;11.966;2022-08-20T10:56:34;100407.44;;;26.31;72.88
32733;BME280;11867;51.198;11.966;2022-08-20T11:01:37;100414.59;;;26.25;73.52
32733;BME280;11867;51.198;11.966;2022-08-20T11:06:40;100407.22;;;26.51;71.01
32733;BME280;11867;51.198;11.966;2022-08-20T11:11:44;100417.38;;;25.84;72.64
32733;BME280;11867;51.198;11.966;2022-08-20T11:16:46;100418.16;;;25.47;73.23
32733;BME280;11867;51.198;11.966;2022-08-20T11:21:49;100412.81;;;25.69;74.06
32733;BME280;11867;51.198;11.966;2022-08-20T11:26:52;100409.84;;;25.88;71.12
32733;BME280;11867;51.198;11.966;2022-08-20T11:31:55;100420.34;;;25.99;71.77
32733;BME280;11867;51.198;11.966;2022-08-20T11:36:58;100423.72;;;26.18;69.10
32733;BME280;11867;51.198;11.966;2022-08-20T11:42:02;100415.91;;;26.38;65.72
32733;BME280;11867;51.198;11.966;2022-08-20T11:47:06;100434.25;;;26.36;67.45
32733;BME280;11867;51.198;11.966;2022-08-20T11:52:09;100437.53;;;26.04;67.71
32733;BME280;11867;51.198;11.966;2022-08-20T11:57:18;100437.50;;;25.33;72.26
32733;BME280;11867;51.198;11.966;2022-08-20T12:02:21;100430.28;;;25.28;67.82
32733;BME280;11867;51.198;11.966;2022-08-20T12:07:25;100426.97;;;25.87;66.66
32733;BME280;11867;51.198;11.966;2022-08-20T12:12:30;100422.72;;;26.00;69.18
32733;BME280;11867;51.198;11.966;2022-08-20T12:17:33;100429.50;;;25.65;68.36
32733;BME280;11867;51.198;11.966;2022-08-20T12:22:35;100421.19;;;25.35;69.04
32733;BME280;11867;51.198;11.966;2022-08-20T12:27:40;100426.59;;;25.88;67.81
32733;BME280;11867;51.198;11.966;2022-08-20T12:32:42;100419.34;;;25.84;69.28
32733;BME280;11867;51.198;11.966;2022-08-20T12:37:46;100415.72;;;26.17;67.11
32733;BME280;11867;51.198;11.966;2022-08-20T12:42:52;100412.53;;;26.63;66.74
32733;BME280;11867;51.198;11.966;2022-08-20T12:48:02;100421.50;;;26.38;65.72
32733;BME280;11867;51.198;11.966;2022-08-20T12:53:06;100421.25;;;26.10;68.11
32733;BME280;11867;51.198;11.966;2022-08-20T12:58:11;100417.84;;;25.90;69.03
32733;BME280;11867;51.198;11.966;2022-08-20T13:03:14;100424.41;;;26.08;67.82
32733;BME280;11867;51.198;11.966;2022-08-20T13:08:16;100423.16;;;26.47;68.05
32733;BME280;11867;51.198;11.966;2022-08-20T13:13:21;100429.38;;;26.74;65.60
32733;BME280;11867;51.198;11.966;2022-08-20T13:18:23;100430.91;;;26.64;66.21
32733;BME280;11867;51.198;11.966;2022-08-20T13:23:26;100433.75;;;26.71;65.48
32733;BME280;11867;51.198;11.966;2022-08-20T13:28:30;100435.25;;;26.58;66.49
32733;BME280;11867;51.198;11.966;2022-08-20T13:33:33;100433.56;;;26.50;65.88
32733;BME280;11867;51.198;11.966;2022-08-20T13:38:35;100432.59;;;26.31;67.12
32733;BME280;11867;51.198;11.966;2022-08-20T13:43:39;100421.78;;;26.71;65.68
32733;BME280;11867;51.198;11.966;2022-08-20T13:48:42;100422.16;;;26.21;68.10
32733;BME280;11867;51.198;11.966;2022-08-20T13:53:44;100415.81;;;26.31;66.97
32733;BME280;11867;51.198;11.966;2022-08-20T13:58:49;100415.97;;;26.49;68.23
32733;BME280;11867;51.198;11.966;2022-08-20T14:03:53;100417.81;;;26.31;65.47
32733;BME280;11867;51.198;11.966;2022-08-20T14:08:56;100406.78;;;26.01;67.84
32733;BME280;11867;51.198;11.966;2022-08-20T14:14:00;100406.66;;;25.90;65.23
32733;BME280;11867;51.198;11.966;2022-08-20T14:19:03;100402.03;;;26.05;67.54
32733;BME280;11867;51.198;11.966;2022-08-20T14:24:06;100396.00;;;25.62;70.02
32733;BME280;11867;51.198;11.966;2022-08-20T14:29:10;100402.78;;;25.64;70.70
32733;BME280;11867;51.198;11.966;2022-08-20T14:34:12;100409.34;;;25.45;71.71
32733;BME280;11867;51.198;11.966;2022-08-20T14:39:15;100406.63;;;25.49;70.84
32733;BME280;11867;51.198;11.966;2022-08-20T14:44:22;100402.25;;;25.51;70.43
32733;BME280;11867;51.198;11.966;2022-08-20T14:49:24;100403.25;;;25.70;70.60
32733;BME280;11867;51.198;11.966;2022-08-20T14:54:27;100408.84;;;25.70;71.56
32733;BME280;11867;51.198;11.966;2022-08-20T14:59:31;100420.50;;;24.85;74.08
32733;BME280;11867;51.198;11.966;2022-08-20T15:04:34;100410.44;;;24.07;77.45
32733;BME280;11867;51.198;11.966;2022-08-20T15:09:37;100407.28;;;24.55;75.64
32733;BME280;11867;51.198;11.966;2022-08-20T15:14:41;100404.56;;;25.15;71.97
32733;BME280;11867;51.198;11.966;2022-08-20T15:19:48;100401.91;;;25.23;70.04
32733;BME280;11867;51.198;11.966;2022-08-20T15:24:51;100401.19;;;25.29;71.03
32733;BME280;11867;51.198;11.966;2022-08-20T15:29:59;100393.78;;;25.44;69.36
32733;BME280;11867;51.198;11.966;2022-08-20T15:35:03;100390.50;;;25.72;68.77
32733;BME280;11867;51.198;11.966;2022-08-20T15:40:07;100398.06;;;26.06;68.13
32733;BME280;11867;51.198;11.966;2022-08-20T15:45:13;100394.50;;;26.12;66.15
32733;BME280;11867;51.198;11.966;2022-08-20T15:50:37;100395.59;;;26.45;65.93
32733;BME280;11867;51.198;11.966;2022-08-20T15:55:46;100402.38;;;26.44;65.05
32733;BME280;11867;51.198;11.966;2022-08-20T16:00:59;100401.63;;;26.51;65.51
32733;BME280;11867;51.198;11.966;2022-08-20T16:06:26;100400.56;;;26.63;65.76
32733;BME280;11867;51.198;11.966;2022-08-20T16:11:39;100398.16;;;26.68;65.21
32733;BME280;11867;51.198;11.966;2022-08-20T16:16:49;100418.31;;;26.92;64.58
32733;BME280;11867;51.198;11.966;2022-08-20T16:22:03;100415.78;;;26.72;66.46
32733;BME280;11867;51.198;11.966;2022-08-20T16:27:11;100436.34;;;26.50;66.64
32733;BME280;11867;51.198;11.966;2022-08-20T16:32:30;100436.13;;;26.21;67.75
32733;BME280;11867;51.198;11.966;2022-08-20T16:37:37;100448.06;;;26.59;67.21
32733;BME280;11867;51.198;11.966;2022-08-20T16:42:45;100468.56;;;24.78;75.74
32733;BME280;11867;51.198;11.966;2022-08-20T16:47:50;100465.72;;;24.28;79.10
32733;BME280;11867;51.198;11.966;2022-08-20T16:52:53;100463.28;;;24.04;80.67
32733;BME280;11867;51.198;11.966;2022-08-20T16:57:56;100469.75;;;24.31;80.12
32733;BME280;11867;51.198;11.966;2022-08-20T17:03:03;100471.72;;;24.07;81.15
32733;BME280;11867;51.198;11.966;2022-08-20T17:08:07;100466.19;;;23.88;82.26
32733;BME280;11867;51.198;11.966;2022-08-20T17:13:21;100471.91;;;24.18;80.86
32733;BME280;11867;51.198;11.966;2022-08-20T17:18:32;100480.31;;;23.79;81.98
32733;BME280;11867;51.198;11.966;2022-08-20T17:23:36;100468.56;;;23.31;85.02
32733;BME280;11867;51.198;11.966;2022-08-20T17:28:58;100473.81;;;23.16;85.43
32733;BME280;11867;51.198;11.966;2022-08-20T17:34:03;100483.13;;;23.24;85.33
32733;BME280;11867;51.198;11.966;2022-08-20T17:39:16;100482.91;;;23.33;85.83
32733;BME280;11867;51.198;11.966;2022-08-20T17:44:21;100473.13;;;23.97;82.50
32733;BME280;11867;51.198;11.966;2022-08-20T17:49:32;100470.75;;;24.00;82.26
32733;BME280;11867;51.198;11.966;2022-08-20T17:54:38;100470.56;;;24.08;82.00
32733;BME280;11867;51.198;11.966;2022-08-20T17:59:44;100475.88;;;24.17;80.72
32733;BME280;11867;51.198;11.966;2022-08-20T18:05:17;100486.28;;;24.20;81.40
32733;BME280;11867;51.198;11.966;2022-08-20T18:10:23;100484.72;;;23.61;83.79
32733;BME280;11867;51.198;11.966;2022-08-20T18:15:30;100484.47;;;24.08;80.91
32733;BME280;11867;51.198;11.966;2022-08-20T18:21:05;100492.72;;;24.24;79.98
32733;BME280;11867;51.198;11.966;2022-08-20T18:26:17;100498.41;;;23.89;82.36
32733;BME280;11867;51.198;11.966;2022-08-20T18:31:26;100498.06;;;23.90;82.99
32733;BME280;11867;51.198;11.966;2022-08-20T18:36:31;100494.47;;;23.15;87.00
32733;BME280;11867;51.198;11.966;2022-08-20T18:41:37;100492.28;;;23.09;88.51
32733;BME280;11867;51.198;11.966;2022-08-20T18:46:51;100491.88;;;23.42;86.76
32733;BME280;11867;51.198;11.966;2022-08-20T18:51:56;100503.88;;;23.46;86.20
32733;BME280;11867;51.198;11.966;2022-08-20T18:57:04;100500.28;;;23.46;85.99
32733;BME280;11867;51.198;11.966;2022-08-20T19:02:19;100500.03;;;23.35;87.11
32733;BME280;11867;51.198;11.966;2022-08-20T19:07:28;100505.06;;;23.29;86.69
32733;BME280;11867;51.198;11.966;2022-08-20T19:13:07;100513.22;;;22.87;90.44
32733;BME280;11867;51.198;11.966;2022-08-20T19:18:21;100512.97;;;23.27;87.54
32733;BME280;11867;51.198;11.966;2022-08-20T19:23:30;100510.97;;;23.08;89.17
32733;BME280;11867;51.198;11.966;2022-08-20T19:28:41;100512.41;;;23.02;90.33
32733;BME280;11867;51.198;11.966;2022-08-20T19:33:45;100513.94;;;23.35;88.40
32733;BME280;11867;51.198;11.966;2022-08-20T19:38:55;100510.91;;;23.40;87.83
32733;BME280;11867;51.198;11.966;2022-08-20T19:43:59;100520.19;;;23.12;90.13
32733;BME280;11867;51.198;11.966;2022-08-20T19:49:12;100520.53;;;22.31;95.40
32733;BME280;11867;51.198;11.966;2022-08-20T19:54:22;100522.66;;;22.22;97.68
32733;BME280;11867;51.198;11.966;2022-08-20T19:59:25;100525.31;;;22.79;93.36
32733;BME280;11867;51.198;11.966;2022-08-20T20:04:36;100524.66;;;23.17;90.21
32733;BME280;11867;51.198;11.966;2022-08-20T20:09:42;100521.28;;;23.08;90.40
32733;BME280;11867;51.198;11.966;2022-08-20T20:14:49;100529.88;;;23.03;90.72
32733;BME280;11867;51.198;11.966;2022-08-20T20:19:55;100535.78;;;21.81;99.74
32733;BME280;11867;51.198;11.966;2022-08-20T20:25:05;100534.03;;;20.87;100.00
32733;BME280;11867;51.198;11.966;2022-08-20T20:30:10;100533.03;;;21.97;100.00
32733;BME280;11867;51.198;11.966;2022-08-20T20:35:23;100531.47;;;21.84;100.00
32733;BME280;11867;51.198;11.966;2022-08-20T20:40:31;100529.22;;;22.02;99.12
32733;BME280;11867;51.198;11.966;2022-08-20T20:45:40;100521.47;;;22.51;94.81
32733;BME280;11867;51.198;11.966;2022-08-20T20:50:45;100523.63;;;21.86;98.84
32733;BME280;11867;51.198;11.966;2022-08-20T20:55:54;100521.53;;;20.68;100.00
32733;BME280;11867;51.198;11.966;2022-08-20T21:00:57;100517.38;;;21.48;100.00
32733;BME280;11867;51.198;11.966;2022-08-20T21:06:00;100520.50;;;21.87;99.65
32733;BME280;11867;51.198;11.966;2022-08-20T21:11:05;100531.63;;;22.03;97.63
32733;BME280;11867;51.198;11.966;2022-08-20T21:16:08;100529.78;;;22.35;94.80
32733;BME280;11867;51.198;11.966;2022-08-20T21:21:13;100522.34;;;21.83;97.24
32733;BME280;11867;51.198;11.966;2022-08-20T21:26:17;100531.13;;;21.32;100.00
32733;BME280;11867;51.198;11.966;2022-08-20T21:31:20;100528.41;;;22.01;97.22
32733;BME280;11867;51.198;11.966;2022-08-20T21:36:22;100526.94;;;22.20;95.11
32733;BME280;11867;51.198;11.966;2022-08-20T21:41:26;100527.34;;;21.00;100.00
32733;BME280;11867;51.198;11.966;2022-08-20T21:46:30;100531.59;;;21.47;100.00
32733;BME280;11867;51.198;11.966;2022-08-20T21:51:33;100529.28;;;21.89;96.74
32733;BME280;11867;51.198;11.966;2022-08-20T21:56:37;100533.22;;;21.35;100.00
32733;BME280;11867;51.198;11.966;2022-08-20T22:01:40;100524.63;;;21.41;99.95
32733;BME280;11867;51.198;11.966;2022-08-20T22:06:43;100522.00;;;20.70;100.00
32733;BME280;11867;51.198;11.966;2022-08-20T22:11:49;100520.03;;;20.25;100.00
32733;BME280;11867;51.198;11.966;2022-08-20T22:16:56;100522.69;;;21.29;100.00
32733;BME280;11867;51.198;11.966;2022-08-20T22:21:58;100517.75;;;20.85;100.00
32733;BME280;11867;51.198;11.966;2022-08-20T22:27:03;100508.97;;;20.95;100.00
32733;BME280;11867;51.198;11.966;2022-08-20T22:32:06;100518.91;;;21.21;99.89
32733;BME280;11867;51.198;11.966;2022-08-20T22:37:10;100521.06;;;21.52;97.37
32733;BME280;11867;51.198;11.966;2022-08-20T22:42:15;100520.63;;;21.26;98.67
32733;BME280;11867;51.198;11.966;2022-08-20T22:47:20;100522.88;;;21.61;95.24
32733;BME280;11867;51.198;11.966;2022-08-20T22:52:25;100523.50;;;21.54;95.46
32733;BME280;11867;51.198;11.966;2022-08-20T22:57:29;100518.19;;;21.24;96.95
32733;BME280;11867;51.198;11.966;2022-08-20T23:02:34;100525.34;;;20.64;100.00
32733;BME280;11867;51.198;11.966;2022-08-20T23:07:37;100526.63;;;20.79;100.00
32733;BME280;11867;51.198;11.966;2022-08-20T23:12:41;100518.25;;;19.75;100.00
32733;BME280;11867;51.198;11.966;2022-08-20T23:17:44;100518.63;;;19.44;100.00
32733;BME280;11867;51.198;11.966;2022-08-20T23:22:46;100517.97;;;19.17;100.00
32733;BME280;11867;51.198;11.966;2022-08-20T23:27:52;100510.66;;;19.84;100.00
32733;BME280;11867;51.198;11.966;2022-08-20T23:32:55;100517.94;;;20.55;100.00
32733;BME280;11867;51.198;11.966;2022-08-20T23:38:02;100508.38;;;19.86;100.00
32733;BME280;11867;51.198;11.966;2022-08-20T23:43:06;100506.53;;;20.11;100.00
32733;BME280;11867;51.198;11.966;2022-08-20T23:48:08;100506.69;;;19.52;100.00
32733;BME280;11867;51.198;11.966;2022-08-20T23:53:11;100511.25;;;19.27;100.00
32733;BME280;11867;51.198;11.966;2022-08-20T23:58:15;100514.75;;;19.36;100.00
